Rapid City Regional Airport
KRAP : rendu visible

Aérodrome :











RETROUVEZ-NOUS SUR...

 
LOGIN :

S'inscrire | Disclaimer

   EN    FR    IT 

 









Légende :    VFR   VFR Marginal   IFR   IFR Intensif   IFR Très Intensif
Visi : 
Plafond : 
>= 8 km
>= 3000ft
5 à 8 km
1000 à 3000 ft
1500m à 5 km
500 à 1000 ft
800 à 1500m
200 à 500 ft
< 800m
< 200 ft
Symboles :   Orages  Brouillard  Fortes neiges  Fortes précipitations  Vent > 20 kt






- Altitude de l'aérodrome : 3204 ft
- Code IATA : RAP


KRAP - Rapid City Regional

DERNIER METAR :
  • 290552Z AUTO 29007KT 10SM OVC075 05/M04 A2990 RMK AO2 SLP130 T00501039 10106 20000 53004

METARs EXPIRÉS :
  • 290452Z AUTO 30008KT 10SM OVC080 05/M04 A2989 RMK AO2 SLP129 T00501039
  • 290352Z 31007KT 10SM BKN080 02/M05 A2989 RMK AO2 SLP135 T00221050

TAF KRAP
Valide du 29 à 06h jusqu'au 30 à 06h UTC


290520Z 2906/3006 30007KT P6SM BKN080
FM290900 29005KT P6SM FEW100
FM291800 VRB05KT P6SM SCT080
FM292200 15006KT P6SM SCT070



MET'MAP, la Météo Aéronautique d'un coup d'oeil ! - Copyright ORBIFLY Décembre 2007 - Disclaimer

ORBIFLY MET'MAP TEAM :

Programmation & Développement : Alexandra Zaïnal
Sur une idée originale de : Baudouin d'Aumeries
Assistance à la programmation : Marc-Olivier Méhu
Soutien technique & logistique : Manuel Goepfert

Contact : metmap@orbifly.com




SOURCES & CREDITS :

   NOAA       Earth
Advisory